sensor_id;sensor_type;location;lat;lon;timestamp;temperature;humidity
41058;DHT22;27499;48.884;2.258;2022-07-15T00:02:14;23.00;77.30
41058;DHT22;27499;48.884;2.258;2022-07-15T00:04:41;23.00;77.90
41058;DHT22;27499;48.884;2.258;2022-07-15T00:07:08;22.90;77.50
41058;DHT22;27499;48.884;2.258;2022-07-15T00:09:35;22.90;77.80
41058;DHT22;27499;48.884;2.258;2022-07-15T00:12:21;22.80;78.00
41058;DHT22;27499;48.884;2.258;2022-07-15T00:14:48;22.70;78.00
41058;DHT22;27499;48.884;2.258;2022-07-15T00:17:15;22.70;78.10
41058;DHT22;27499;48.884;2.258;2022-07-15T00:19:42;22.60;78.20
41058;DHT22;27499;48.884;2.258;2022-07-15T00:22:09;22.50;78.60
41058;DHT22;27499;48.884;2.258;2022-07-15T00:24:36;22.50;78.80
41058;DHT22;27499;48.884;2.258;2022-07-15T00:27:03;22.40;79.20
41058;DHT22;27499;48.884;2.258;2022-07-15T00:29:31;22.40;79.20
41058;DHT22;27499;48.884;2.258;2022-07-15T00:31:58;22.40;80.80
41058;DHT22;27499;48.884;2.258;2022-07-15T00:34:25;22.40;79.10
41058;DHT22;27499;48.884;2.258;2022-07-15T00:36:52;22.30;79.70
41058;DHT22;27499;48.884;2.258;2022-07-15T00:39:19;22.30;79.10
41058;DHT22;27499;48.884;2.258;2022-07-15T00:41:46;22.20;79.60
41058;DHT22;27499;48.884;2.258;2022-07-15T00:44:13;22.20;79.80
41058;DHT22;27499;48.884;2.258;2022-07-15T00:46:41;22.20;79.70
41058;DHT22;27499;48.884;2.258;2022-07-15T00:49:09;22.20;79.80
41058;DHT22;27499;48.884;2.258;2022-07-15T00:51:40;22.10;80.80
41058;DHT22;27499;48.884;2.258;2022-07-15T00:54:10;22.10;79.90
41058;DHT22;27499;48.884;2.258;2022-07-15T00:56:44;22.10;80.20
41058;DHT22;27499;48.884;2.258;2022-07-15T00:59:13;22.00;80.40
41058;DHT22;27499;48.884;2.258;2022-07-15T01:01:41;22.00;80.40
41058;DHT22;27499;48.884;2.258;2022-07-15T01:04:09;22.00;80.80
41058;DHT22;27499;48.884;2.258;2022-07-15T01:06:37;21.90;81.50
41058;DHT22;27499;48.884;2.258;2022-07-15T01:09:04;21.90;80.90
41058;DHT22;27499;48.884;2.258;2022-07-15T01:11:32;21.90;82.20
41058;DHT22;27499;48.884;2.258;2022-07-15T01:13:59;21.80;81.40
41058;DHT22;27499;48.884;2.258;2022-07-15T01:16:26;21.80;82.00
41058;DHT22;27499;48.884;2.258;2022-07-15T01:18:54;21.80;81.30
41058;DHT22;27499;48.884;2.258;2022-07-15T01:21:21;21.70;82.00
41058;DHT22;27499;48.884;2.258;2022-07-15T01:23:49;21.70;81.70
41058;DHT22;27499;48.884;2.258;2022-07-15T01:26:16;21.60;81.40
41058;DHT22;27499;48.884;2.258;2022-07-15T01:28:44;21.60;80.90
41058;DHT22;27499;48.884;2.258;2022-07-15T01:31:11;21.50;80.60
41058;DHT22;27499;48.884;2.258;2022-07-15T01:33:38;21.50;81.40
41058;DHT22;27499;48.884;2.258;2022-07-15T01:36:06;21.50;80.70
41058;DHT22;27499;48.884;2.258;2022-07-15T01:38:33;21.50;81.00
41058;DHT22;27499;48.884;2.258;2022-07-15T01:41:14;21.40;80.80
41058;DHT22;27499;48.884;2.258;2022-07-15T01:43:41;21.40;80.90
41058;DHT22;27499;48.884;2.258;2022-07-15T01:46:08;21.40;80.70
41058;DHT22;27499;48.884;2.258;2022-07-15T01:48:35;21.40;81.10
41058;DHT22;27499;48.884;2.258;2022-07-15T01:51:20;21.40;80.90
41058;DHT22;27499;48.884;2.258;2022-07-15T01:53:47;21.30;80.80
41058;DHT22;27499;48.884;2.258;2022-07-15T01:56:14;21.30;80.90
41058;DHT22;27499;48.884;2.258;2022-07-15T01:58:41;21.20;81.20
41058;DHT22;27499;48.884;2.258;2022-07-15T02:01:09;21.20;81.00
41058;DHT22;27499;48.884;2.258;2022-07-15T02:03:36;21.10;81.10
41058;DHT22;27499;48.884;2.258;2022-07-15T02:06:03;21.10;81.90
41058;DHT22;27499;48.884;2.258;2022-07-15T02:08:30;21.10;80.80
41058;DHT22;27499;48.884;2.258;2022-07-15T02:10:57;21.10;80.80
41058;DHT22;27499;48.884;2.258;2022-07-15T02:13:24;21.10;80.00
41058;DHT22;27499;48.884;2.258;2022-07-15T02:15:51;21.00;80.30
41058;DHT22;27499;48.884;2.258;2022-07-15T02:18:18;21.10;80.00
41058;DHT22;27499;48.884;2.258;2022-07-15T02:20:45;21.00;80.40
41058;DHT22;27499;48.884;2.258;2022-07-15T02:23:13;21.00;79.90
41058;DHT22;27499;48.884;2.258;2022-07-15T02:25:40;21.00;80.30
41058;DHT22;27499;48.884;2.258;2022-07-15T02:28:08;21.00;80.00
41058;DHT22;27499;48.884;2.258;2022-07-15T02:30:38;20.90;79.60
41058;DHT22;27499;48.884;2.258;2022-07-15T02:33:06;21.00;80.10
41058;DHT22;27499;48.884;2.258;2022-07-15T02:35:33;20.90;80.00
41058;DHT22;27499;48.884;2.258;2022-07-15T02:38:01;20.80;80.10
41058;DHT22;27499;48.884;2.258;2022-07-15T02:40:28;20.80;80.60
41058;DHT22;27499;48.884;2.258;2022-07-15T02:42:57;20.80;80.30
41058;DHT22;27499;48.884;2.258;2022-07-15T02:45:26;20.80;81.00
41058;DHT22;27499;48.884;2.258;2022-07-15T02:47:54;20.80;80.40
41058;DHT22;27499;48.884;2.258;2022-07-15T02:50:22;20.80;80.60
41058;DHT22;27499;48.884;2.258;2022-07-15T02:52:49;20.80;80.30
41058;DHT22;27499;48.884;2.258;2022-07-15T02:55:17;20.70;80.70
41058;DHT22;27499;48.884;2.258;2022-07-15T02:57:44;20.70;80.10
41058;DHT22;27499;48.884;2.258;2022-07-15T03:00:13;20.70;80.50
41058;DHT22;27499;48.884;2.258;2022-07-15T03:02:41;20.60;80.70
41058;DHT22;27499;48.884;2.258;2022-07-15T03:05:09;20.60;80.50
41058;DHT22;27499;48.884;2.258;2022-07-15T03:07:36;20.60;80.60
41058;DHT22;27499;48.884;2.258;2022-07-15T03:10:04;20.50;80.70
41058;DHT22;27499;48.884;2.258;2022-07-15T03:12:31;20.50;81.00
41058;DHT22;27499;48.884;2.258;2022-07-15T03:15:00;20.50;80.60
41058;DHT22;27499;48.884;2.258;2022-07-15T03:17:27;20.50;80.80
41058;DHT22;27499;48.884;2.258;2022-07-15T03:19:55;20.50;80.50
41058;DHT22;27499;48.884;2.258;2022-07-15T03:22:25;20.50;80.80
41058;DHT22;27499;48.884;2.258;2022-07-15T03:24:54;20.40;81.50
41058;DHT22;27499;48.884;2.258;2022-07-15T03:27:21;20.40;81.10
41058;DHT22;27499;48.884;2.258;2022-07-15T03:29:48;20.40;81.10
41058;DHT22;27499;48.884;2.258;2022-07-15T03:32:16;20.30;81.30
41058;DHT22;27499;48.884;2.258;2022-07-15T03:34:46;20.30;82.00
41058;DHT22;27499;48.884;2.258;2022-07-15T03:37:15;20.40;81.70
41058;DHT22;27499;48.884;2.258;2022-07-15T03:39:42;20.30;81.60
41058;DHT22;27499;48.884;2.258;2022-07-15T03:42:09;20.30;81.20
41058;DHT22;27499;48.884;2.258;2022-07-15T03:44:36;20.30;81.30
41058;DHT22;27499;48.884;2.258;2022-07-15T03:47:03;20.30;81.40
41058;DHT22;27499;48.884;2.258;2022-07-15T03:49:30;20.20;81.40
41058;DHT22;27499;48.884;2.258;2022-07-15T03:51:57;20.10;82.00
41058;DHT22;27499;48.884;2.258;2022-07-15T03:54:24;20.20;82.10
41058;DHT22;27499;48.884;2.258;2022-07-15T03:56:51;20.20;82.40
41058;DHT22;27499;48.884;2.258;2022-07-15T03:59:19;20.20;82.70
41058;DHT22;27499;48.884;2.258;2022-07-15T04:01:48;20.20;83.10
41058;DHT22;27499;48.884;2.258;2022-07-15T04:04:16;20.10;82.60
41058;DHT22;27499;48.884;2.258;2022-07-15T04:06:43;20.10;82.50
41058;DHT22;27499;48.884;2.258;2022-07-15T04:09:10;20.10;82.40
41058;DHT22;27499;48.884;2.258;2022-07-15T04:11:38;20.10;82.70
41058;DHT22;27499;48.884;2.258;2022-07-15T04:14:13;20.00;82.80
41058;DHT22;27499;48.884;2.258;2022-07-15T04:16:44;20.00;83.10
41058;DHT22;27499;48.884;2.258;2022-07-15T04:19:11;19.90;83.30
41058;DHT22;27499;48.884;2.258;2022-07-15T04:21:37;19.90;83.10
41058;DHT22;27499;48.884;2.258;2022-07-15T04:24:05;19.90;83.30
41058;DHT22;27499;48.884;2.258;2022-07-15T04:26:31;19.90;83.90
41058;DHT22;27499;48.884;2.258;2022-07-15T04:28:58;19.90;84.30
41058;DHT22;27499;48.884;2.258;2022-07-15T04:31:25;19.90;83.40
41058;DHT22;27499;48.884;2.258;2022-07-15T04:33:52;19.90;84.00
41058;DHT22;27499;48.884;2.258;2022-07-15T04:36:19;19.80;84.50
41058;DHT22;27499;48.884;2.258;2022-07-15T04:38:46;19.70;84.00
41058;DHT22;27499;48.884;2.258;2022-07-15T04:41:13;19.70;84.40
41058;DHT22;27499;48.884;2.258;2022-07-15T04:43:40;19.70;84.20
41058;DHT22;27499;48.884;2.258;2022-07-15T04:46:07;19.70;84.90
41058;DHT22;27499;48.884;2.258;2022-07-15T04:48:34;19.70;84.70
41058;DHT22;27499;48.884;2.258;2022-07-15T04:51:20;19.70;84.40
41058;DHT22;27499;48.884;2.258;2022-07-15T04:53:47;19.70;84.80
41058;DHT22;27499;48.884;2.258;2022-07-15T04:56:14;19.60;85.30
41058;DHT22;27499;48.884;2.258;2022-07-15T04:58:42;19.50;85.30
41058;DHT22;27499;48.884;2.258;2022-07-15T05:01:09;19.60;85.80
41058;DHT22;27499;48.884;2.258;2022-07-15T05:03:36;19.60;85.60
41058;DHT22;27499;48.884;2.258;2022-07-15T05:06:03;19.60;86.00
41058;DHT22;27499;48.884;2.258;2022-07-15T05:08:30;19.50;86.60
41058;DHT22;27499;48.884;2.258;2022-07-15T05:10:57;19.50;86.20
41058;DHT22;27499;48.884;2.258;2022-07-15T05:13:25;19.60;86.00
41058;DHT22;27499;48.884;2.258;2022-07-15T05:15:51;19.60;85.60
41058;DHT22;27499;48.884;2.258;2022-07-15T05:18:18;19.50;85.80
41058;DHT22;27499;48.884;2.258;2022-07-15T05:20:45;19.60;85.90
41058;DHT22;27499;48.884;2.258;2022-07-15T05:23:12;19.50;86.30
41058;DHT22;27499;48.884;2.258;2022-07-15T05:25:39;19.50;86.30
41058;DHT22;27499;48.884;2.258;2022-07-15T05:28:06;19.50;86.80
41058;DHT22;27499;48.884;2.258;2022-07-15T05:30:33;19.50;87.10
41058;DHT22;27499;48.884;2.258;2022-07-15T05:33:03;19.50;86.90
41058;DHT22;27499;48.884;2.258;2022-07-15T05:35:31;19.50;87.60
41058;DHT22;27499;48.884;2.258;2022-07-15T05:37:58;19.50;87.30
41058;DHT22;27499;48.884;2.258;2022-07-15T05:40:24;19.40;87.10
41058;DHT22;27499;48.884;2.258;2022-07-15T05:42:51;19.40;87.60
41058;DHT22;27499;48.884;2.258;2022-07-15T05:45:20;19.40;87.60
41058;DHT22;27499;48.884;2.258;2022-07-15T05:47:51;19.40;88.40
41058;DHT22;27499;48.884;2.258;2022-07-15T05:50:18;19.50;87.90
41058;DHT22;27499;48.884;2.258;2022-07-15T05:52:45;19.50;87.90
41058;DHT22;27499;48.884;2.258;2022-07-15T05:55:12;19.50;88.50
41058;DHT22;27499;48.884;2.258;2022-07-15T05:57:39;19.50;88.40
41058;DHT22;27499;48.884;2.258;2022-07-15T06:00:12;19.50;88.60
41058;DHT22;27499;48.884;2.258;2022-07-15T06:02:40;19.50;87.50
41058;DHT22;27499;48.884;2.258;2022-07-15T06:05:07;19.50;87.70
41058;DHT22;27499;48.884;2.258;2022-07-15T06:07:35;19.50;88.20
41058;DHT22;27499;48.884;2.258;2022-07-15T06:10:04;19.60;88.10
41058;DHT22;27499;48.884;2.258;2022-07-15T06:12:31;19.60;87.90
41058;DHT22;27499;48.884;2.258;2022-07-15T06:14:58;19.60;88.00
41058;DHT22;27499;48.884;2.258;2022-07-15T06:17:25;19.60;88.00
41058;DHT22;27499;48.884;2.258;2022-07-15T06:19:52;19.70;88.60
41058;DHT22;27499;48.884;2.258;2022-07-15T06:22:19;19.70;89.20
41058;DHT22;27499;48.884;2.258;2022-07-15T06:24:46;19.70;88.10
41058;DHT22;27499;48.884;2.258;2022-07-15T06:27:13;19.80;87.90
41058;DHT22;27499;48.884;2.258;2022-07-15T06:29:40;19.70;87.30
41058;DHT22;27499;48.884;2.258;2022-07-15T06:32:07;19.70;86.70
41058;DHT22;27499;48.884;2.258;2022-07-15T06:34:34;19.80;87.00
41058;DHT22;27499;48.884;2.258;2022-07-15T06:37:01;19.80;86.80
41058;DHT22;27499;48.884;2.258;2022-07-15T06:39:28;19.80;87.40
41058;DHT22;27499;48.884;2.258;2022-07-15T06:41:55;19.90;88.00
41058;DHT22;27499;48.884;2.258;2022-07-15T06:44:22;19.90;88.00
41058;DHT22;27499;48.884;2.258;2022-07-15T06:46:49;19.90;87.90
41058;DHT22;27499;48.884;2.258;2022-07-15T06:49:23;20.00;86.50
41058;DHT22;27499;48.884;2.258;2022-07-15T06:51:50;20.00;85.70
41058;DHT22;27499;48.884;2.258;2022-07-15T06:54:18;20.10;87.20
41058;DHT22;27499;48.884;2.258;2022-07-15T06:56:45;20.10;85.60
41058;DHT22;27499;48.884;2.258;2022-07-15T06:59:12;20.10;86.20
41058;DHT22;27499;48.884;2.258;2022-07-15T07:01:39;20.20;85.40
41058;DHT22;27499;48.884;2.258;2022-07-15T07:04:06;20.20;85.90
41058;DHT22;27499;48.884;2.258;2022-07-15T07:06:33;20.30;85.80
41058;DHT22;27499;48.884;2.258;2022-07-15T07:09:00;20.30;85.00
41058;DHT22;27499;48.884;2.258;2022-07-15T07:11:27;20.40;85.80
41058;DHT22;27499;48.884;2.258;2022-07-15T07:13:55;20.40;84.10
41058;DHT22;27499;48.884;2.258;2022-07-15T07:16:22;20.40;84.40
41058;DHT22;27499;48.884;2.258;2022-07-15T07:18:49;20.40;84.70
41058;DHT22;27499;48.884;2.258;2022-07-15T07:21:18;20.50;85.80
41058;DHT22;27499;48.884;2.258;2022-07-15T07:23:48;20.60;83.10
41058;DHT22;27499;48.884;2.258;2022-07-15T07:26:15;20.70;83.40
41058;DHT22;27499;48.884;2.258;2022-07-15T07:28:43;20.70;83.30
41058;DHT22;27499;48.884;2.258;2022-07-15T07:31:13;20.80;83.40
41058;DHT22;27499;48.884;2.258;2022-07-15T07:33:41;20.90;82.30
41058;DHT22;27499;48.884;2.258;2022-07-15T07:36:08;20.90;82.20
41058;DHT22;27499;48.884;2.258;2022-07-15T07:38:35;21.00;81.60
41058;DHT22;27499;48.884;2.258;2022-07-15T07:41:02;21.00;82.40
41058;DHT22;27499;48.884;2.258;2022-07-15T07:43:30;21.10;81.60
41058;DHT22;27499;48.884;2.258;2022-07-15T07:45:59;21.10;80.30
41058;DHT22;27499;48.884;2.258;2022-07-15T07:48:26;21.10;80.70
41058;DHT22;27499;48.884;2.258;2022-07-15T07:50:53;21.20;79.10
41058;DHT22;27499;48.884;2.258;2022-07-15T07:53:20;21.30;79.30
41058;DHT22;27499;48.884;2.258;2022-07-15T07:55:48;21.30;78.90
41058;DHT22;27499;48.884;2.258;2022-07-15T07:58:15;21.30;79.40
41058;DHT22;27499;48.884;2.258;2022-07-15T08:00:44;21.40;77.70
41058;DHT22;27499;48.884;2.258;2022-07-15T08:03:11;21.40;77.60
41058;DHT22;27499;48.884;2.258;2022-07-15T08:05:38;21.50;77.60
41058;DHT22;27499;48.884;2.258;2022-07-15T08:08:13;21.50;77.70
41058;DHT22;27499;48.884;2.258;2022-07-15T08:10:42;21.60;75.20
41058;DHT22;27499;48.884;2.258;2022-07-15T08:13:15;21.60;74.60
41058;DHT22;27499;48.884;2.258;2022-07-15T08:15:43;21.70;74.80
41058;DHT22;27499;48.884;2.258;2022-07-15T08:18:10;21.70;75.50
41058;DHT22;27499;48.884;2.258;2022-07-15T08:20:37;21.80;75.50
41058;DHT22;27499;48.884;2.258;2022-07-15T08:23:05;21.80;75.10
41058;DHT22;27499;48.884;2.258;2022-07-15T08:25:35;21.90;74.10
41058;DHT22;27499;48.884;2.258;2022-07-15T08:28:06;21.90;75.30
41058;DHT22;27499;48.884;2.258;2022-07-15T08:30:34;21.90;73.30
41058;DHT22;27499;48.884;2.258;2022-07-15T08:33:02;22.00;74.30
41058;DHT22;27499;48.884;2.258;2022-07-15T08:35:30;22.10;73.50
41058;DHT22;27499;48.884;2.258;2022-07-15T08:37:57;22.10;74.00
41058;DHT22;27499;48.884;2.258;2022-07-15T08:40:24;22.20;73.50
41058;DHT22;27499;48.884;2.258;2022-07-15T08:42:52;22.20;73.00
41058;DHT22;27499;48.884;2.258;2022-07-15T08:45:19;22.30;73.20
41058;DHT22;27499;48.884;2.258;2022-07-15T08:47:47;22.30;71.60
41058;DHT22;27499;48.884;2.258;2022-07-15T08:50:20;22.40;72.30
41058;DHT22;27499;48.884;2.258;2022-07-15T08:52:47;22.40;71.90
41058;DHT22;27499;48.884;2.258;2022-07-15T08:55:15;22.40;71.50
41058;DHT22;27499;48.884;2.258;2022-07-15T08:57:47;22.50;71.40
41058;DHT22;27499;48.884;2.258;2022-07-15T09:00:14;22.50;71.10
41058;DHT22;27499;48.884;2.258;2022-07-15T09:02:42;22.60;70.40
41058;DHT22;27499;48.884;2.258;2022-07-15T09:13:07;22.80;69.60
41058;DHT22;27499;48.884;2.258;2022-07-15T09:15:37;22.90;71.10
41058;DHT22;27499;48.884;2.258;2022-07-15T09:18:05;22.90;70.60
41058;DHT22;27499;48.884;2.258;2022-07-15T09:20:34;23.00;72.60
41058;DHT22;27499;48.884;2.258;2022-07-15T09:23:02;23.00;68.30
41058;DHT22;27499;48.884;2.258;2022-07-15T09:25:30;23.00;68.40
41058;DHT22;27499;48.884;2.258;2022-07-15T09:28:05;23.10;68.00
41058;DHT22;27499;48.884;2.258;2022-07-15T09:30:38;23.10;68.00
41058;DHT22;27499;48.884;2.258;2022-07-15T09:33:25;23.10;67.60
41058;DHT22;27499;48.884;2.258;2022-07-15T09:38:38;23.20;67.80
41058;DHT22;27499;48.884;2.258;2022-07-15T09:43:45;23.30;67.20
41058;DHT22;27499;48.884;2.258;2022-07-15T09:46:12;23.40;66.80
41058;DHT22;27499;48.884;2.258;2022-07-15T09:48:41;23.50;68.20
41058;DHT22;27499;48.884;2.258;2022-07-15T09:51:09;23.50;67.30
41058;DHT22;27499;48.884;2.258;2022-07-15T09:53:37;23.50;65.30
41058;DHT22;27499;48.884;2.258;2022-07-15T09:56:07;23.50;68.10
41058;DHT22;27499;48.884;2.258;2022-07-15T09:58:40;23.60;65.50
41058;DHT22;27499;48.884;2.258;2022-07-15T10:01:08;23.60;66.80
41058;DHT22;27499;48.884;2.258;2022-07-15T10:03:37;23.60;65.50
41058;DHT22;27499;48.884;2.258;2022-07-15T10:06:05;23.60;65.90
41058;DHT22;27499;48.884;2.258;2022-07-15T10:08:34;23.60;65.00
41058;DHT22;27499;48.884;2.258;2022-07-15T10:11:07;23.60;66.20
41058;DHT22;27499;48.884;2.258;2022-07-15T10:27:30;23.90;63.60
41058;DHT22;27499;48.884;2.258;2022-07-15T10:30:07;23.90;62.40
41058;DHT22;27499;48.884;2.258;2022-07-15T10:33:05;23.90;62.80
41058;DHT22;27499;48.884;2.258;2022-07-15T10:35:38;23.90;64.50
41058;DHT22;27499;48.884;2.258;2022-07-15T10:41:03;23.90;63.90
41058;DHT22;27499;48.884;2.258;2022-07-15T10:43:57;23.90;62.60
41058;DHT22;27499;48.884;2.258;2022-07-15T10:46:35;23.90;63.90
41058;DHT22;27499;48.884;2.258;2022-07-15T10:56:52;23.90;61.40
41058;DHT22;27499;48.884;2.258;2022-07-15T10:59:23;24.00;62.40
41058;DHT22;27499;48.884;2.258;2022-07-15T11:04:31;24.00;61.00
41058;DHT22;27499;48.884;2.258;2022-07-15T11:09:57;24.00;62.20
41058;DHT22;27499;48.884;2.258;2022-07-15T11:15:03;24.00;60.40
41058;DHT22;27499;48.884;2.258;2022-07-15T11:20:09;24.00;61.60
41058;DHT22;27499;48.884;2.258;2022-07-15T11:22:43;24.00;63.70
41058;DHT22;27499;48.884;2.258;2022-07-15T11:25:37;24.10;62.20
41058;DHT22;27499;48.884;2.258;2022-07-15T11:28:11;24.20;61.50
41058;DHT22;27499;48.884;2.258;2022-07-15T11:33:12;24.20;60.60
41058;DHT22;27499;48.884;2.258;2022-07-15T11:35:50;24.20;62.50
41058;DHT22;27499;48.884;2.258;2022-07-15T11:38:20;24.20;60.70
41058;DHT22;27499;48.884;2.258;2022-07-15T11:40:52;24.20;60.90
41058;DHT22;27499;48.884;2.258;2022-07-15T11:43:39;24.10;60.70
41058;DHT22;27499;48.884;2.258;2022-07-15T11:46:28;24.10;60.80
41058;DHT22;27499;48.884;2.258;2022-07-15T11:48:59;24.20;60.90
41058;DHT22;27499;48.884;2.258;2022-07-15T11:51:28;24.20;60.00
41058;DHT22;27499;48.884;2.258;2022-07-15T11:53:57;24.20;59.90
41058;DHT22;27499;48.884;2.258;2022-07-15T11:56:25;24.20;58.80
41058;DHT22;27499;48.884;2.258;2022-07-15T11:58:53;24.20;57.70
41058;DHT22;27499;48.884;2.258;2022-07-15T12:01:23;24.20;58.00
41058;DHT22;27499;48.884;2.258;2022-07-15T12:03:54;24.20;59.00
41058;DHT22;27499;48.884;2.258;2022-07-15T12:06:24;24.20;60.30
41058;DHT22;27499;48.884;2.258;2022-07-15T12:08:54;24.20;60.00
41058;DHT22;27499;48.884;2.258;2022-07-15T12:11:33;24.20;60.30
41058;DHT22;27499;48.884;2.258;2022-07-15T12:14:05;24.20;59.00
41058;DHT22;27499;48.884;2.258;2022-07-15T12:19:12;24.20;59.90
41058;DHT22;27499;48.884;2.258;2022-07-15T12:21:41;24.20;59.50
41058;DHT22;27499;48.884;2.258;2022-07-15T12:24:16;24.30;60.40
41058;DHT22;27499;48.884;2.258;2022-07-15T12:29:28;24.20;60.30
41058;DHT22;27499;48.884;2.258;2022-07-15T12:32:15;24.30;59.80
41058;DHT22;27499;48.884;2.258;2022-07-15T12:34:54;24.30;59.60
41058;DHT22;27499;48.884;2.258;2022-07-15T12:37:23;24.30;59.20
41058;DHT22;27499;48.884;2.258;2022-07-15T12:42:46;24.30;60.00
41058;DHT22;27499;48.884;2.258;2022-07-15T12:48:16;24.40;57.80
41058;DHT22;27499;48.884;2.258;2022-07-15T12:53:23;24.30;58.90
41058;DHT22;27499;48.884;2.258;2022-07-15T12:55:52;24.40;59.60
41058;DHT22;27499;48.884;2.258;2022-07-15T12:58:29;24.40;59.20
41058;DHT22;27499;48.884;2.258;2022-07-15T13:01:27;24.40;59.50
41058;DHT22;27499;48.884;2.258;2022-07-15T13:03:54;24.50;61.20
41058;DHT22;27499;48.884;2.258;2022-07-15T13:06:20;24.50;59.70
41058;DHT22;27499;48.884;2.258;2022-07-15T13:08:47;24.50;60.40
41058;DHT22;27499;48.884;2.258;2022-07-15T13:11:14;24.50;60.00
41058;DHT22;27499;48.884;2.258;2022-07-15T13:13:41;24.50;59.60
41058;DHT22;27499;48.884;2.258;2022-07-15T13:16:09;24.50;58.90
41058;DHT22;27499;48.884;2.258;2022-07-15T13:18:36;24.50;60.20
41058;DHT22;27499;48.884;2.258;2022-07-15T13:21:04;24.50;59.40
41058;DHT22;27499;48.884;2.258;2022-07-15T13:23:31;24.50;60.10
41058;DHT22;27499;48.884;2.258;2022-07-15T13:25:58;24.50;60.20
41058;DHT22;27499;48.884;2.258;2022-07-15T13:28:25;24.50;59.30
41058;DHT22;27499;48.884;2.258;2022-07-15T13:30:52;24.50;59.40
41058;DHT22;27499;48.884;2.258;2022-07-15T13:33:20;24.50;60.60
41058;DHT22;27499;48.884;2.258;2022-07-15T13:35:47;24.50;59.10
41058;DHT22;27499;48.884;2.258;2022-07-15T13:38:14;24.50;59.80
41058;DHT22;27499;48.884;2.258;2022-07-15T13:40:41;24.50;60.40
41058;DHT22;27499;48.884;2.258;2022-07-15T13:43:08;24.50;59.30
41058;DHT22;27499;48.884;2.258;2022-07-15T13:45:35;24.50;59.30
41058;DHT22;27499;48.884;2.258;2022-07-15T13:48:11;24.50;59.10
41058;DHT22;27499;48.884;2.258;2022-07-15T13:50:38;24.50;59.50
41058;DHT22;27499;48.884;2.258;2022-07-15T13:53:24;24.50;59.00
41058;DHT22;27499;48.884;2.258;2022-07-15T13:55:51;24.50;57.90
41058;DHT22;27499;48.884;2.258;2022-07-15T13:58:18;24.50;60.70
41058;DHT22;27499;48.884;2.258;2022-07-15T14:00:45;24.60;59.00
41058;DHT22;27499;48.884;2.258;2022-07-15T14:03:12;24.60;60.10
41058;DHT22;27499;48.884;2.258;2022-07-15T14:05:39;24.60;59.70
41058;DHT22;27499;48.884;2.258;2022-07-15T14:08:06;24.50;57.90
41058;DHT22;27499;48.884;2.258;2022-07-15T14:10:33;24.60;58.50
41058;DHT22;27499;48.884;2.258;2022-07-15T14:13:00;24.60;58.50
41058;DHT22;27499;48.884;2.258;2022-07-15T14:15:27;24.60;57.50
41058;DHT22;27499;48.884;2.258;2022-07-15T14:18:03;24.60;58.30
41058;DHT22;27499;48.884;2.258;2022-07-15T14:20:30;24.50;57.50
41058;DHT22;27499;48.884;2.258;2022-07-15T14:22:58;24.50;57.90
41058;DHT22;27499;48.884;2.258;2022-07-15T14:25:25;24.50;58.40
41058;DHT22;27499;48.884;2.258;2022-07-15T14:27:53;24.60;58.50
41058;DHT22;27499;48.884;2.258;2022-07-15T14:30:21;24.60;59.50
41058;DHT22;27499;48.884;2.258;2022-07-15T14:32:49;24.60;59.50
41058;DHT22;27499;48.884;2.258;2022-07-15T14:35:19;24.60;58.80
41058;DHT22;27499;48.884;2.258;2022-07-15T14:37:47;24.70;58.60
41058;DHT22;27499;48.884;2.258;2022-07-15T14:40:15;24.70;58.00
41058;DHT22;27499;48.884;2.258;2022-07-15T14:42:42;24.60;57.60
41058;DHT22;27499;48.884;2.258;2022-07-15T14:45:09;24.70;58.10
41058;DHT22;27499;48.884;2.258;2022-07-15T14:47:36;24.70;58.20
41058;DHT22;27499;48.884;2.258;2022-07-15T14:50:04;24.70;57.40
41058;DHT22;27499;48.884;2.258;2022-07-15T14:52:32;24.70;57.40
41058;DHT22;27499;48.884;2.258;2022-07-15T14:54:59;24.70;57.60
41058;DHT22;27499;48.884;2.258;2022-07-15T14:57:26;24.60;58.00
41058;DHT22;27499;48.884;2.258;2022-07-15T14:59:52;24.70;59.20
41058;DHT22;27499;48.884;2.258;2022-07-15T15:02:19;24.60;59.60
41058;DHT22;27499;48.884;2.258;2022-07-15T15:04:49;24.70;58.50
41058;DHT22;27499;48.884;2.258;2022-07-15T15:07:16;24.70;58.50
41058;DHT22;27499;48.884;2.258;2022-07-15T15:09:43;24.70;58.60
41058;DHT22;27499;48.884;2.258;2022-07-15T15:12:10;24.70;57.60
41058;DHT22;27499;48.884;2.258;2022-07-15T15:14:37;24.70;58.30
41058;DHT22;27499;48.884;2.258;2022-07-15T15:17:04;24.70;58.50
41058;DHT22;27499;48.884;2.258;2022-07-15T15:19:35;24.70;58.50
41058;DHT22;27499;48.884;2.258;2022-07-15T15:22:03;24.70;58.40
41058;DHT22;27499;48.884;2.258;2022-07-15T15:24:31;24.70;58.00
41058;DHT22;27499;48.884;2.258;2022-07-15T15:26:58;24.70;59.70
41058;DHT22;27499;48.884;2.258;2022-07-15T15:29:28;24.70;58.60
41058;DHT22;27499;48.884;2.258;2022-07-15T15:31:56;24.70;57.60
41058;DHT22;27499;48.884;2.258;2022-07-15T15:34:23;24.70;58.10
41058;DHT22;27499;48.884;2.258;2022-07-15T15:36:50;24.70;58.20
41058;DHT22;27499;48.884;2.258;2022-07-15T15:39:16;24.70;59.70
41058;DHT22;27499;48.884;2.258;2022-07-15T15:41:44;24.70;59.80
41058;DHT22;27499;48.884;2.258;2022-07-15T15:44:11;24.70;57.90
41058;DHT22;27499;48.884;2.258;2022-07-15T15:46:40;24.70;58.80
41058;DHT22;27499;48.884;2.258;2022-07-15T15:49:07;24.70;57.40
41058;DHT22;27499;48.884;2.258;2022-07-15T15:51:34;24.70;57.10
41058;DHT22;27499;48.884;2.258;2022-07-15T15:54:01;24.70;58.10
41058;DHT22;27499;48.884;2.258;2022-07-15T15:56:28;24.70;58.80
41058;DHT22;27499;48.884;2.258;2022-07-15T15:58:55;24.70;59.90
41058;DHT22;27499;48.884;2.258;2022-07-15T16:01:22;24.70;59.90
41058;DHT22;27499;48.884;2.258;2022-07-15T16:03:49;24.70;58.50
41058;DHT22;27499;48.884;2.258;2022-07-15T16:06:16;24.70;58.50
41058;DHT22;27499;48.884;2.258;2022-07-15T16:08:50;24.70;58.70
41058;DHT22;27499;48.884;2.258;2022-07-15T16:11:17;24.70;58.70
41058;DHT22;27499;48.884;2.258;2022-07-15T16:13:44;24.70;59.70
41058;DHT22;27499;48.884;2.258;2022-07-15T16:16:12;24.70;58.90
41058;DHT22;27499;48.884;2.258;2022-07-15T16:18:39;24.70;58.70
41058;DHT22;27499;48.884;2.258;2022-07-15T16:21:06;24.70;57.20
41058;DHT22;27499;48.884;2.258;2022-07-15T16:23:33;24.70;56.20
41058;DHT22;27499;48.884;2.258;2022-07-15T16:26:00;24.70;57.10
41058;DHT22;27499;48.884;2.258;2022-07-15T16:28:27;24.70;58.30
41058;DHT22;27499;48.884;2.258;2022-07-15T16:30:54;24.80;57.80
41058;DHT22;27499;48.884;2.258;2022-07-15T16:33:22;24.80;58.50
41058;DHT22;27499;48.884;2.258;2022-07-15T16:35:49;24.80;59.00
41058;DHT22;27499;48.884;2.258;2022-07-15T16:38:16;24.80;58.90
41058;DHT22;27499;48.884;2.258;2022-07-15T16:40:43;24.80;57.40
41058;DHT22;27499;48.884;2.258;2022-07-15T16:43:10;24.80;59.30
41058;DHT22;27499;48.884;2.258;2022-07-15T16:45:37;24.80;59.50